Time;durP1;ratioP1;P1;durP2;ratioP2;P2;SDS_P1;SDS_P2;PMS_P1;PMS_P2;Temp;Humidity;BMP_temperature;BMP_pressure;BME280_temperature;BME280_humidity;BME280_pressure;Samples;Min_cycle;Max_cycle;Signal;HPM_P1;HPM_P2
2023/01/24 00:00:08;;;;;;;;;;;;;;;15.08;41.12;100377.94;4483951;31;34193;-89
2023/01/24 00:02:35;;;;;;;;;;;;;;;15.09;41.03;100377.06;4480432;32;33676;-86
2023/01/24 00:05:03;;;;;;;;;;;;;;;15.13;41.01;100368.41;4469843;32;33982;-89
2023/01/24 00:07:30;;;;;;;;;;;;;;;15.25;40.77;100375.53;4484043;31;34311;-88
2023/01/24 00:09:58;;;;;;;;;;;;;;;14.92;41.19;100373.31;4487611;31;34703;-86
2023/01/24 00:12:25;;;;;;;;;;;;;;;14.99;41.22;100376.03;4498835;31;32908;-86
2023/01/24 00:14:53;;;;;;;;;;;;;;;15.17;40.71;100377.16;4479444;32;33701;-83
2023/01/24 00:17:21;;;;;;;;;;;;;;;15.21;40.57;100371.12;4484307;31;34360;-90
2023/01/24 00:19:48;;;;;;;;;;;;;;;14.71;41.26;100366.94;4490525;31;34767;-86
2023/01/24 00:22:16;;;;;;;;;;;;;;;14.24;42.15;100379.16;4482605;32;33124;-88
2023/01/24 00:24:43;;;;;;;;;;;;;;;14.30;41.90;100374.06;4484861;31;35038;-82
2023/01/24 00:27:15;;;;;;;;;;;;;;;13.79;42.90;100380.13;4472988;31;35210;-81
2023/01/24 00:29:42;;;;;;;;;;;;;;;13.68;42.81;100379.03;4491337;31;34698;-90
2023/01/24 00:32:10;;;;;;;;;;;;;;;12.32;45.86;100385.50;4461001;32;33574;-90
2023/01/24 00:34:38;;;;;;;;;;;;;;;11.11;48.66;100395.12;4491552;31;34294;-88
2023/01/24 00:37:05;;;;;;;;;;;;;;;11.62;47.75;100392.25;4498381;31;34136;-88
2023/01/24 00:39:33;;;;;;;;;;;;;;;11.35;48.36;100387.16;4474412;32;32873;-91
2023/01/24 00:42:00;;;;;;;;;;;;;;;10.59;50.26;100398.66;4478621;31;33501;-89
2023/01/24 00:44:28;;;;;;;;;;;;;;;10.83;49.90;100397.69;4496513;31;34347;-90
2023/01/24 00:46:55;;;;;;;;;;;;;;;10.69;50.22;100398.16;4492387;31;34377;-81
2023/01/24 00:49:23;;;;;;;;;;;;;;;10.78;49.76;100396.66;4489996;31;33887;-86
2023/01/24 00:51:50;;;;;;;;;;;;;;;10.44;50.55;100400.75;4456469;32;33165;-90
2023/01/24 00:54:17;;;;;;;;;;;;;;;10.08;51.46;100406.44;4469494;32;34316;-91
2023/01/24 00:56:45;;;;;;;;;;;;;;;10.31;50.62;100408.97;4483989;31;33583;-90
2023/01/24 00:59:12;;;;;;;;;;;;;;;10.58;50.54;100412.47;4494247;31;33672;-90
2023/01/24 01:01:39;;;;;;;;;;;;;;;10.64;49.82;100416.97;4482643;31;33939;-88
2023/01/24 01:04:07;;;;;;;;;;;;;;;10.38;50.41;100422.19;4483444;32;35226;-90
2023/01/24 01:06:34;;;;;;;;;;;;;;;9.82;52.03;100417.59;4497211;31;33639;-87
2023/01/24 01:09:01;;;;;;;;;;;;;;;9.69;52.63;100417.13;4496915;31;33824;-85
2023/01/24 01:11:28;;;;;;;;;;;;;;;9.98;51.61;100414.72;4484506;31;32866;-91
2023/01/24 01:13:58;;;;;;;;;;;;;;;9.62;52.83;100427.22;4499616;31;33542;-90
2023/01/24 01:16:25;;;;;;;;;;;;;;;9.28;53.82;100426.00;4483238;31;34350;-90
2023/01/24 01:18:54;;;;;;;;;;;;;;;9.22;54.05;100426.63;4496785;31;34271;-89
2023/01/24 01:21:21;;;;;;;;;;;;;;;9.87;52.26;100426.41;4483623;32;34219;-89
2023/01/24 01:23:48;;;;;;;;;;;;;;;9.58;52.68;100433.13;4483815;32;34190;-90
2023/01/24 01:26:17;;;;;;;;;;;;;;;9.59;51.93;100430.59;4494350;31;34469;-89
2023/01/24 01:28:45;;;;;;;;;;;;;;;9.52;52.19;100428.59;4498838;31;34904;-82
2023/01/24 01:31:13;;;;;;;;;;;;;;;9.08;53.47;100438.13;4495535;31;33540;-90
2023/01/24 01:33:42;;;;;;;;;;;;;;;8.88;54.05;100432.19;4482173;32;33675;-90
2023/01/24 01:36:09;;;;;;;;;;;;;;;8.34;55.47;100425.62;4483673;31;35233;-90
2023/01/24 01:38:36;;;;;;;;;;;;;;;8.71;54.62;100431.53;4484823;31;34002;-88
2023/01/24 01:41:04;;;;;;;;;;;;;;;8.44;55.54;100430.37;4469147;31;32153;-90
2023/01/24 01:43:32;;;;;;;;;;;;;;;8.36;55.63;100434.31;4483446;32;34268;-90
2023/01/24 01:46:01;;;;;;;;;;;;;;;8.28;56.00;100434.00;4492155;31;34400;-85
2023/01/24 01:48:33;;;;;;;;;;;;;;;8.89;53.96;100438.25;4483266;31;33561;-89
2023/01/24 01:51:02;;;;;;;;;;;;;;;8.59;54.94;100446.50;4476641;31;34140;-89
2023/01/24 01:53:31;;;;;;;;;;;;;;;8.86;53.90;100443.28;4484332;31;35046;-83
2023/01/24 01:56:00;;;;;;;;;;;;;;;8.68;54.68;100441.75;4491248;31;34172;-89
2023/01/24 01:58:28;;;;;;;;;;;;;;;8.49;54.84;100452.16;4492665;31;34819;-89
2023/01/24 02:00:55;;;;;;;;;;;;;;;8.97;53.74;100448.06;4474694;31;32997;-89
2023/01/24 02:03:38;;;;;;;;;;;;;;;8.71;54.35;100443.53;4492520;31;33491;-90
2023/01/24 02:06:07;;;;;;;;;;;;;;;9.38;52.71;100440.16;4486031;31;35112;-82
2023/01/24 02:08:34;;;;;;;;;;;;;;;8.55;54.09;100447.22;4483335;31;34247;-89
2023/01/24 02:16:02;;;;;;;;;;;;;;;8.26;55.29;100444.28;4453377;31;34176;-90
2023/01/24 02:16:46;;;;;;;;;;;;;;;7.99;55.41;100450.81;4486359;31;34412;-81
2023/01/24 02:19:23;;;;;;;;;;;;;;;8.28;54.94;100462.41;4489711;31;34617;-90
2023/01/24 02:21:51;;;;;;;;;;;;;;;8.34;55.00;100451.47;4499135;31;34131;-88
2023/01/24 02:24:22;;;;;;;;;;;;;;;8.89;53.47;100458.94;4468843;32;33517;-87
2023/01/24 02:26:49;;;;;;;;;;;;;;;8.40;54.55;100454.31;4472013;31;34252;-91
2023/01/24 02:29:16;;;;;;;;;;;;;;;8.21;55.00;100456.09;4481664;31;34132;-88
2023/01/24 02:32:12;;;;;;;;;;;;;;;8.86;52.87;100451.91;4470958;31;34187;-90
2023/01/24 02:34:40;;;;;;;;;;;;;;;8.47;54.06;100458.94;4496186;31;34760;-89
2023/01/24 02:37:10;;;;;;;;;;;;;;;8.21;54.51;100445.75;4498844;31;34366;-91
2023/01/24 02:39:46;;;;;;;;;;;;;;;8.22;54.39;100452.72;4478971;32;34790;-86
2023/01/24 02:42:20;;;;;;;;;;;;;;;8.52;53.69;100452.25;4468760;32;33471;-91
2023/01/24 02:45:02;;;;;;;;;;;;;;;9.05;52.79;100456.12;4475812;31;33987;-91
2023/01/24 02:47:32;;;;;;;;;;;;;;;8.57;53.42;100455.03;4472826;31;34066;-91
2023/01/24 02:49:59;;;;;;;;;;;;;;;8.50;53.54;100457.37;4482863;31;34882;-91
2023/01/24 02:55:13;;;;;;;;;;;;;;;8.25;54.35;100455.41;4497723;31;35189;-89
2023/01/24 03:00:27;;;;;;;;;;;;;;;8.25;54.69;100468.31;4489778;31;34230;-86
2023/01/24 03:02:56;;;;;;;;;;;;;;;8.91;52.07;100462.47;4486898;31;33412;-90
2023/01/24 03:05:23;;;;;;;;;;;;;;;8.19;53.86;100473.25;4498114;31;33798;-88
2023/01/24 03:07:51;;;;;;;;;;;;;;;7.92;54.93;100466.88;4481898;31;34067;-90
2023/01/24 03:10:18;;;;;;;;;;;;;;;8.26;53.99;100474.41;4489739;31;34757;-86
2023/01/24 03:34:57;;;;;;;;;;;;;;;8.52;51.80;100480.69;4484768;31;33047;-90
2023/01/24 03:40:13;;;;;;;;;;;;;;;9.26;50.02;100482.84;4486691;31;35286;-89
2023/01/24 03:42:50;;;;;;;;;;;;;;;9.28;50.27;100482.91;4484925;32;34691;-90
2023/01/24 03:45:19;;;;;;;;;;;;;;;9.18;50.64;100483.38;4484681;32;34059;-91
2023/01/24 03:47:54;;;;;;;;;;;;;;;10.13;48.13;100481.75;4483384;32;34398;-90
2023/01/24 03:53:16;;;;;;;;;;;;;;;9.95;48.03;100471.59;4485003;31;33987;-89
2023/01/24 03:55:43;;;;;;;;;;;;;;;9.72;48.71;100479.41;4485754;31;33413;-88
2023/01/24 03:58:10;;;;;;;;;;;;;;;9.24;49.88;100479.34;4471104;32;34904;-90
2023/01/24 04:00:38;;;;;;;;;;;;;;;9.57;49.45;100476.25;4478354;31;34179;-91
2023/01/24 04:03:07;;;;;;;;;;;;;;;8.91;50.94;100478.00;4500022;31;34325;-89
2023/01/24 04:05:35;;;;;;;;;;;;;;;9.90;48.43;100478.34;4500022;31;34099;-89
2023/01/24 04:08:02;;;;;;;;;;;;;;;9.91;48.37;100480.09;4472248;32;34037;-90
2023/01/24 04:10:30;;;;;;;;;;;;;;;9.47;49.42;100482.81;4471006;31;34562;-90
2023/01/24 04:12:57;;;;;;;;;;;;;;;10.75;46.46;100479.56;4500118;31;34163;-87
2023/01/24 04:15:26;;;;;;;;;;;;;;;10.13;47.56;100474.84;4485436;31;33137;-87
2023/01/24 04:17:56;;;;;;;;;;;;;;;10.40;46.96;100481.84;4496209;31;33931;-86
2023/01/24 04:20:23;;;;;;;;;;;;;;;10.61;46.37;100481.72;4473431;31;34175;-89
2023/01/24 04:22:51;;;;;;;;;;;;;;;10.70;46.29;100475.13;4475113;32;34251;-88
2023/01/24 04:25:18;;;;;;;;;;;;;;;10.75;45.96;100483.03;4486020;31;33485;-90
2023/01/24 04:27:47;;;;;;;;;;;;;;;11.25;44.83;100482.91;4480997;31;34905;-91
2023/01/24 04:30:19;;;;;;;;;;;;;;;11.53;44.08;100475.13;4491687;31;34852;-90
2023/01/24 04:32:47;;;;;;;;;;;;;;;10.35;46.22;100479.12;4496153;31;33681;-90
2023/01/24 04:35:15;;;;;;;;;;;;;;;10.89;45.56;100479.19;4482957;32;33619;-90
2023/01/24 04:37:44;;;;;;;;;;;;;;;10.05;47.19;100484.06;4474771;32;34896;-90
2023/01/24 04:40:12;;;;;;;;;;;;;;;11.30;44.77;100482.22;4488472;31;35091;-90
2023/01/24 04:42:40;;;;;;;;;;;;;;;11.63;43.89;100482.38;4484865;31;34024;-87
2023/01/24 04:45:08;;;;;;;;;;;;;;;12.04;43.05;100474.00;4485381;31;33158;-84
2023/01/24 04:47:35;;;;;;;;;;;;;;;11.59;43.90;100485.72;4496340;31;34023;-90
2023/01/24 04:50:02;;;;;;;;;;;;;;;12.15;42.59;100481.25;4499490;31;35275;-90
2023/01/24 04:52:30;;;;;;;;;;;;;;;12.22;42.47;100479.72;4499596;31;34132;-90
2023/01/24 04:54:58;;;;;;;;;;;;;;;12.19;42.53;100482.22;4499681;31;33173;-90
2023/01/24 04:57:25;;;;;;;;;;;;;;;12.44;41.92;100478.56;4496455;31;34675;-84
2023/01/24 04:59:53;;;;;;;;;;;;;;;12.06;42.35;100483.63;4484452;31;34361;-88
2023/01/24 05:02:21;;;;;;;;;;;;;;;10.94;44.75;100490.59;4499459;31;34816;-86
2023/01/24 05:04:48;;;;;;;;;;;;;;;11.83;43.27;100497.66;4499434;31;33180;-89
2023/01/24 05:07:16;;;;;;;;;;;;;;;12.37;42.24;100497.44;4495592;31;34877;-89
2023/01/24 05:09:43;;;;;;;;;;;;;;;12.04;43.01;100500.88;4499799;31;35300;-87
2023/01/24 05:12:10;;;;;;;;;;;;;;;12.11;43.12;100492.41;4499761;31;34836;-91
2023/01/24 05:14:38;;;;;;;;;;;;;;;12.87;41.69;100497.84;4498359;31;33324;-89
2023/01/24 05:17:05;;;;;;;;;;;;;;;13.06;41.40;100494.84;4492910;31;33868;-85
2023/01/24 05:19:33;;;;;;;;;;;;;;;13.47;40.84;100494.97;4499621;31;34274;-89
2023/01/24 05:22:01;;;;;;;;;;;;;;;13.58;40.88;100498.69;4476249;31;33834;-90
2023/01/24 05:24:29;;;;;;;;;;;;;;;13.72;40.74;100499.00;4463512;31;32505;-87
2023/01/24 05:26:56;;;;;;;;;;;;;;;13.73;40.66;100507.69;4488779;31;35023;-91
2023/01/24 05:29:24;;;;;;;;;;;;;;;13.97;40.25;100495.16;4489562;31;34220;-89
2023/01/24 05:31:52;;;;;;;;;;;;;;;14.05;40.20;100497.91;4480407;31;33702;-88
2023/01/24 05:34:19;;;;;;;;;;;;;;;13.99;40.44;100508.25;4490253;31;32946;-90
2023/01/24 05:36:47;;;;;;;;;;;;;;;14.06;40.26;100494.47;4498886;31;36386;-90
2023/01/24 05:39:15;;;;;;;;;;;;;;;13.97;40.21;100502.09;4506830;31;34533;-88
2023/01/24 05:41:42;;;;;;;;;;;;;;;14.03;40.13;100500.50;4482671;31;34633;-87
2023/01/24 05:44:10;;;;;;;;;;;;;;;14.06;40.15;100494.47;4495048;31;33292;-87
2023/01/24 05:46:38;;;;;;;;;;;;;;;13.93;40.18;100502.88;4497622;31;33837;-87
2023/01/24 05:49:07;;;;;;;;;;;;;;;14.14;39.94;100495.50;4488892;31;35305;-87
2023/01/24 05:51:35;;;;;;;;;;;;;;;14.10;39.93;100502.38;4483995;31;34119;-88
2023/01/24 05:54:02;;;;;;;;;;;;;;;13.89;40.11;100501.94;4496791;31;33396;-89
2023/01/24 05:56:31;;;;;;;;;;;;;;;14.01;40.26;100502.19;4499464;31;33987;-89
2023/01/24 05:59:01;;;;;;;;;;;;;;;13.94;40.26;100504.63;4489738;31;35178;-89
2023/01/24 06:01:28;;;;;;;;;;;;;;;14.00;40.19;100507.38;4483107;31;34832;-89
2023/01/24 06:03:56;;;;;;;;;;;;;;;14.12;39.87;100507.63;4483005;31;33256;-88
2023/01/24 06:06:24;;;;;;;;;;;;;;;13.73;40.56;100510.31;4483446;32;33968;-91
2023/01/24 06:08:51;;;;;;;;;;;;;;;13.82;40.46;100515.69;4483404;32;34416;-90
2023/01/24 06:11:20;;;;;;;;;;;;;;;13.74;40.30;100514.66;4495410;31;33891;-90
2023/01/24 06:13:47;;;;;;;;;;;;;;;13.47;40.72;100518.41;4484666;31;33607;-90
2023/01/24 06:16:19;;;;;;;;;;;;;;;13.63;40.52;100517.91;4498656;31;34128;-90
2023/01/24 06:18:47;;;;;;;;;;;;;;;13.73;40.27;100520.72;4483925;31;34115;-92
2023/01/24 06:21:24;;;;;;;;;;;;;;;13.82;40.37;100527.00;4483087;32;33712;-90
2023/01/24 06:23:52;;;;;;;;;;;;;;;14.01;40.07;100523.03;4483346;32;33402;-91
2023/01/24 06:26:20;;;;;;;;;;;;;;;14.06;39.93;100531.00;4483062;32;34790;-91
2023/01/24 06:28:47;;;;;;;;;;;;;;;13.97;39.95;100526.44;4497373;31;34074;-89
2023/01/24 06:31:24;;;;;;;;;;;;;;;13.92;39.93;100535.91;4488009;31;34153;-88
2023/01/24 06:34:04;;;;;;;;;;;;;;;13.58;40.12;100532.56;4498538;31;33880;-90
2023/01/24 06:36:47;;;;;;;;;;;;;;;13.70;39.94;100531.94;4484508;31;35026;-91
2023/01/24 06:39:15;;;;;;;;;;;;;;;13.44;40.16;100533.97;4481371;32;35203;-90
2023/01/24 06:41:42;;;;;;;;;;;;;;;13.69;39.92;100529.31;4483988;31;34041;-88
2023/01/24 06:44:10;;;;;;;;;;;;;;;13.62;40.14;100537.00;4483814;31;33405;-89
2023/01/24 06:46:37;;;;;;;;;;;;;;;13.79;39.94;100540.00;4483992;31;34161;-89
2023/01/24 06:49:05;;;;;;;;;;;;;;;13.43;40.83;100536.56;4498329;31;34172;-89
2023/01/24 06:51:32;;;;;;;;;;;;;;;13.54;40.84;100541.16;4498254;31;33950;-89
2023/01/24 06:54:00;;;;;;;;;;;;;;;13.85;40.14;100536.63;4498584;31;32649;-90
2023/01/24 06:56:30;;;;;;;;;;;;;;;13.70;40.37;100544.09;4498457;31;34055;-89
2023/01/24 06:58:57;;;;;;;;;;;;;;;13.83;40.29;100543.53;4500133;31;34391;-89
2023/01/24 07:01:24;;;;;;;;;;;;;;;13.71;40.64;100545.87;4500490;31;34755;-89
2023/01/24 07:03:52;;;;;;;;;;;;;;;13.49;40.76;100540.19;4500609;31;33106;-89
2023/01/24 07:06:22;;;;;;;;;;;;;;;13.71;40.45;100548.47;4500559;31;34833;-88
2023/01/24 07:08:49;;;;;;;;;;;;;;;13.51;40.83;100551.50;4500687;31;34806;-88
2023/01/24 07:11:16;;;;;;;;;;;;;;;13.14;40.97;100548.03;4501048;31;33362;-90
2023/01/24 07:13:43;;;;;;;;;;;;;;;12.81;41.49;100549.78;4500780;31;33939;-89
2023/01/24 07:16:11;;;;;;;;;;;;;;;13.22;40.62;100557.72;4500449;31;33734;-89
2023/01/24 07:18:38;;;;;;;;;;;;;;;13.22;40.76;100557.72;4500682;31;33956;-90
2023/01/24 07:21:06;;;;;;;;;;;;;;;13.42;40.42;100555.66;4500334;31;34352;-89
2023/01/24 07:23:34;;;;;;;;;;;;;;;13.12;41.16;100562.72;4500435;31;33409;-87
2023/01/24 07:26:03;;;;;;;;;;;;;;;13.44;40.57;100554.81;4500459;31;33829;-89
2023/01/24 07:28:30;;;;;;;;;;;;;;;13.44;40.51;100556.53;4500717;31;34898;-89
2023/01/24 07:30:57;;;;;;;;;;;;;;;13.69;40.05;100561.47;4500298;31;34727;-89
2023/01/24 07:33:24;;;;;;;;;;;;;;;13.69;40.36;100560.59;4500165;31;33239;-88
2023/01/24 07:35:52;;;;;;;;;;;;;;;12.95;41.61;100573.53;4500170;31;33820;-89
2023/01/24 07:38:19;;;;;;;;;;;;;;;13.46;40.83;100567.91;4500161;31;34319;-89
2023/01/24 07:40:46;;;;;;;;;;;;;;;13.30;41.07;100577.06;4500274;31;35062;-89
2023/01/24 07:43:13;;;;;;;;;;;;;;;12.59;42.46;100574.34;4500013;31;33149;-89
2023/01/24 07:45:44;;;;;;;;;;;;;;;12.82;42.55;100577.56;4500228;31;35058;-89
2023/01/24 07:48:11;;;;;;;;;;;;;;;13.17;42.04;100580.16;4499850;31;35202;-88
2023/01/24 07:50:39;;;;;;;;;;;;;;;13.09;42.62;100582.59;4498752;31;33683;-92
2023/01/24 07:53:06;;;;;;;;;;;;;;;12.84;43.60;100578.47;4489414;31;33426;-87
2023/01/24 07:55:33;;;;;;;;;;;;;;;13.50;42.04;100590.56;4491786;31;34214;-89
2023/01/24 07:58:01;;;;;;;;;;;;;;;13.43;42.48;100584.31;4486547;31;35290;-87
2023/01/24 08:00:28;;;;;;;;;;;;;;;13.55;42.50;100595.03;4485597;31;33935;-88
2023/01/24 08:02:56;;;;;;;;;;;;;;;13.96;41.90;100599.44;4485486;31;34236;-89
2023/01/24 08:05:23;;;;;;;;;;;;;;;13.95;42.09;100600.28;4484555;31;34183;-89
2023/01/24 08:07:50;;;;;;;;;;;;;;;14.45;40.96;100603.94;4498128;31;35093;-88
2023/01/24 08:10:18;;;;;;;;;;;;;;;14.40;41.19;100609.94;4482728;32;33844;-90
2023/01/24 08:12:45;;;;;;;;;;;;;;;14.53;40.93;100610.22;4483952;32;34019;-91
2023/01/24 08:15:12;;;;;;;;;;;;;;;14.72;40.64;100605.38;4483963;32;34388;-91
2023/01/24 08:17:40;;;;;;;;;;;;;;;14.81;40.53;100608.12;4483853;32;34431;-90
2023/01/24 08:20:08;;;;;;;;;;;;;;;14.92;40.48;100608.34;4499145;31;34042;-85
2023/01/24 08:22:35;;;;;;;;;;;;;;;14.05;41.47;100610.03;4499736;31;33096;-86
2023/01/24 08:25:12;;;;;;;;;;;;;;;14.65;40.67;100606.09;4486410;31;33731;-86
2023/01/24 08:27:39;;;;;;;;;;;;;;;14.72;40.98;100607.97;4499763;31;33874;-89
2023/01/24 08:30:10;;;;;;;;;;;;;;;15.11;40.24;100617.38;4484145;31;34717;-90
2023/01/24 08:32:38;;;;;;;;;;;;;;;15.15;39.95;100619.19;4483760;32;34294;-91
2023/01/24 08:35:05;;;;;;;;;;;;;;;14.60;40.39;100619.06;4482880;32;34123;-90
2023/01/24 08:37:32;;;;;;;;;;;;;;;15.25;38.48;100623.72;4481333;32;35498;-90
2023/01/24 08:39:59;;;;;;;;;;;;;;;13.80;40.51;100626.87;4497027;31;33536;-89
2023/01/24 08:42:27;;;;;;;;;;;;;;;14.10;40.34;100624.09;4499328;31;34212;-88
2023/01/24 08:44:54;;;;;;;;;;;;;;;15.21;38.05;100621.91;4499666;31;34285;-87
2023/01/24 08:47:22;;;;;;;;;;;;;;;14.99;38.54;100618.03;4498154;31;34406;-87
2023/01/24 08:49:49;;;;;;;;;;;;;;;15.20;39.01;100628.00;4484074;31;34906;-88
2023/01/24 08:52:16;;;;;;;;;;;;;;;15.19;38.84;100623.59;4483880;31;33410;-87
2023/01/24 08:54:44;;;;;;;;;;;;;;;15.73;36.68;100617.56;4486238;31;34054;-88
2023/01/24 08:57:11;;;;;;;;;;;;;;;15.60;37.14;100621.69;4483820;32;33817;-89
2023/01/24 08:59:38;;;;;;;;;;;;;;;14.58;39.65;100623.34;4484093;32;33800;-89
2023/01/24 09:02:06;;;;;;;;;;;;;;;15.14;38.22;100626.16;4483508;32;34221;-88
2023/01/24 09:04:33;;;;;;;;;;;;;;;14.59;39.37;100623.41;4483660;32;34328;-89
2023/01/24 09:07:00;;;;;;;;;;;;;;;14.38;39.96;100625.53;4483758;32;34068;-88
2023/01/24 09:09:27;;;;;;;;;;;;;;;15.39;37.84;100631.81;4483451;32;34729;-89
2023/01/24 09:11:55;;;;;;;;;;;;;;;15.31;38.09;100632.56;4483584;32;33147;-87
2023/01/24 09:14:22;;;;;;;;;;;;;;;15.53;37.97;100631.19;4483730;32;34112;-89
2023/01/24 09:16:49;;;;;;;;;;;;;;;15.50;38.30;100632.88;4482066;32;34114;-87
2023/01/24 09:19:17;;;;;;;;;;;;;;;15.74;38.08;100632.41;4482050;32;33228;-88
2023/01/24 09:21:45;;;;;;;;;;;;;;;15.79;37.97;100628.97;4483027;32;33453;-88
2023/01/24 09:24:12;;;;;;;;;;;;;;;15.80;38.01;100628.16;4483832;32;35142;-89
2023/01/24 09:26:40;;;;;;;;;;;;;;;16.00;37.08;100631.03;4483479;32;35025;-88
2023/01/24 09:29:07;;;;;;;;;;;;;;;15.29;35.89;100622.94;4483657;32;34872;-88
2023/01/24 09:31:37;;;;;;;;;;;;;;;15.87;35.32;100620.37;4483773;32;33477;-88
2023/01/24 09:34:05;;;;;;;;;;;;;;;15.13;36.98;100629.63;4484046;32;34138;-89
2023/01/24 09:36:33;;;;;;;;;;;;;;;14.94;37.44;100628.41;4483622;32;34122;-89
2023/01/24 09:39:00;;;;;;;;;;;;;;;14.90;38.22;100629.22;4483475;32;34451;-89
2023/01/24 09:41:35;;;;;;;;;;;;;;;14.41;39.31;100622.12;4483673;32;33731;-89
2023/01/24 09:44:03;;;;;;;;;;;;;;;14.38;40.44;100619.44;4483213;32;34249;-89
2023/01/24 09:46:31;;;;;;;;;;;;;;;13.25;42.78;100615.12;4482236;32;34422;-89
2023/01/24 09:49:00;;;;;;;;;;;;;;;13.35;43.11;100619.72;4482061;32;34988;-89
2023/01/24 09:51:28;;;;;;;;;;;;;;;13.91;42.49;100622.81;4483205;32;34118;-88
2023/01/24 09:53:55;;;;;;;;;;;;;;;13.48;42.76;100619.16;4481823;32;35078;-89
2023/01/24 09:56:31;;;;;;;;;;;;;;;14.08;41.41;100625.75;4481902;32;35157;-88
2023/01/24 09:59:17;;;;;;;;;;;;;;;14.41;40.96;100611.69;4481939;32;34795;-88
2023/01/24 10:01:46;;;;;;;;;;;;;;;14.65;40.19;100606.09;4483423;32;34133;-89
2023/01/24 10:04:14;;;;;;;;;;;;;;;14.24;41.04;100608.72;4481755;32;35027;-89
2023/01/24 10:06:54;;;;;;;;;;;;;;;14.08;41.18;100611.00;4481915;32;34995;-88
2023/01/24 10:09:25;;;;;;;;;;;;;;;13.85;41.62;100605.28;4481602;32;34092;-88
2023/01/24 10:12:12;;;;;;;;;;;;;;;14.44;40.84;100603.94;4482122;32;33425;-89
2023/01/24 10:14:43;;;;;;;;;;;;;;;14.29;41.52;100597.53;4481894;32;34596;-88
2023/01/24 10:17:29;;;;;;;;;;;;;;;14.23;41.70;100593.91;4483075;32;34514;-89
2023/01/24 10:20:07;;;;;;;;;;;;;;;13.77;41.56;100601.62;4483044;32;34002;-89
2023/01/24 10:22:40;;;;;;;;;;;;;;;13.62;41.88;100598.66;4481607;32;34014;-89
2023/01/24 10:25:08;;;;;;;;;;;;;;;14.08;40.56;100586.66;4482665;32;34072;-88
2023/01/24 10:27:36;;;;;;;;;;;;;;;13.44;41.86;100586.06;4482575;32;35379;-89
2023/01/24 10:30:14;;;;;;;;;;;;;;;13.96;40.65;100592.47;4482721;32;33698;-88
2023/01/24 10:32:43;;;;;;;;;;;;;;;13.87;41.10;100592.28;4484361;32;34512;-88
2023/01/24 10:35:12;;;;;;;;;;;;;;;13.48;41.76;100593.13;4484664;32;35240;-88
2023/01/24 10:37:41;;;;;;;;;;;;;;;14.65;38.81;100590.44;4483056;32;34471;-89
2023/01/24 10:40:15;;;;;;;;;;;;;;;14.73;39.75;100591.44;4484732;32;34121;-88
2023/01/24 10:42:42;;;;;;;;;;;;;;;14.04;39.86;100596.13;4483793;32;33071;-87
2023/01/24 10:45:22;;;;;;;;;;;;;;;14.52;38.92;100584.97;4483174;32;34101;-88
2023/01/24 10:47:59;;;;;;;;;;;;;;;14.71;38.98;100586.22;4484671;32;34278;-88
2023/01/24 10:50:34;;;;;;;;;;;;;;;14.83;37.86;100583.81;4483189;32;34768;-89
2023/01/24 10:53:14;;;;;;;;;;;;;;;15.49;36.76;100590.19;4483352;32;33254;-88
2023/01/24 10:55:59;;;;;;;;;;;;;;;15.81;36.51;100579.34;4484624;32;34045;-88
2023/01/24 10:58:36;;;;;;;;;;;;;;;15.99;36.46;100578.72;4484884;32;34284;-89
2023/01/24 11:01:07;;;;;;;;;;;;;;;16.31;36.11;100571.25;4484945;32;33892;-89
2023/01/24 11:03:38;;;;;;;;;;;;;;;15.99;36.45;100560.41;4483768;32;33566;-88
2023/01/24 11:06:18;;;;;;;;;;;;;;;16.23;36.46;100558.09;4484403;32;33662;-89
2023/01/24 11:08:46;;;;;;;;;;;;;;;16.37;36.51;100547.78;4470374;32;33485;-88
2023/01/24 11:11:17;;;;;;;;;;;;;;;16.66;34.30;100539.34;4484625;32;34424;-88
2023/01/24 11:13:44;;;;;;;;;;;;;;;16.55;32.89;100547.09;4483521;32;33389;-88
2023/01/24 11:16:15;;;;;;;;;;;;;;;15.39;34.67;100556.03;4484360;32;33922;-89
2023/01/24 11:18:48;;;;;;;;;;;;;;;15.95;33.51;100543.78;4484437;32;34201;-88
2023/01/24 11:21:16;;;;;;;;;;;;;;;15.89;34.21;100535.84;4484345;32;34222;-89
2023/01/24 11:23:43;;;;;;;;;;;;;;;15.44;35.50;100543.91;4484401;32;34115;-89
2023/01/24 11:26:23;;;;;;;;;;;;;;;15.84;34.59;100532.31;4484230;32;35087;-88
2023/01/24 11:28:56;;;;;;;;;;;;;;;15.61;34.26;100528.44;4484707;32;34119;-88
2023/01/24 11:31:28;;;;;;;;;;;;;;;16.11;33.50;100533.53;4484324;32;34691;-89
2023/01/24 11:34:01;;;;;;;;;;;;;;;15.32;35.37;100527.19;4483191;32;33169;-89
2023/01/24 11:36:41;;;;;;;;;;;;;;;15.68;35.62;100522.47;4484112;32;34327;-88
2023/01/24 11:39:16;;;;;;;;;;;;;;;15.97;34.27;100518.53;4483168;32;34278;-89
2023/01/24 11:41:49;;;;;;;;;;;;;;;16.00;34.50;100508.09;4483155;32;33897;-89
2023/01/24 11:44:35;;;;;;;;;;;;;;;16.06;33.80;100504.66;4482707;32;33698;-88
2023/01/24 11:47:13;;;;;;;;;;;;;;;16.02;34.71;100502.88;4484436;32;34984;-88
2023/01/24 11:49:50;;;;;;;;;;;;;;;15.47;36.06;100507.38;4482815;32;35249;-89
2023/01/24 11:52:24;;;;;;;;;;;;;;;15.80;35.92;100507.00;4484452;32;34118;-89
2023/01/24 11:54:53;;;;;;;;;;;;;;;14.38;39.39;100510.75;4484354;32;34119;-89
2023/01/24 11:57:26;;;;;;;;;;;;;;;15.06;37.79;100518.06;4484408;32;35139;-89
2023/01/24 12:00:03;;;;;;;;;;;;;;;14.51;38.59;100507.56;4484236;32;35177;-89
2023/01/24 12:02:49;;;;;;;;;;;;;;;14.25;39.99;100514.84;4483084;32;34135;-88
2023/01/24 12:05:23;;;;;;;;;;;;;;;15.62;36.96;100517.16;4484309;32;33825;-88
2023/01/24 12:07:59;;;;;;;;;;;;;;;15.45;37.45;100519.50;4484100;32;34877;-89
2023/01/24 12:10:42;;;;;;;;;;;;;;;15.92;36.46;100508.88;4484209;32;34459;-88
2023/01/24 12:13:21;;;;;;;;;;;;;;;15.55;37.25;100492.66;4484073;32;34853;-89
2023/01/24 12:15:54;;;;;;;;;;;;;;;13.94;41.11;100499.44;4482725;32;33298;-87
2023/01/24 12:18:40;;;;;;;;;;;;;;;15.28;38.75;100503.59;4483966;32;34318;-88
2023/01/24 12:21:10;;;;;;;;;;;;;;;15.03;39.81;100513.66;4484046;32;34422;-88
2023/01/24 12:23:47;;;;;;;;;;;;;;;15.41;38.91;100507.25;4484008;32;34727;-87
2023/01/24 12:26:14;;;;;;;;;;;;;;;14.55;41.13;100501.53;4483883;32;34083;-89
2023/01/24 12:28:47;;;;;;;;;;;;;;;14.72;40.59;100503.56;4484008;32;34912;-88
2023/01/24 12:31:16;;;;;;;;;;;;;;;14.21;41.72;100505.22;4482864;32;34313;-89
2023/01/24 12:33:50;;;;;;;;;;;;;;;14.81;40.96;100508.91;4482824;32;33687;-89
2023/01/24 12:36:32;;;;;;;;;;;;;;;14.35;41.65;100508.06;4482749;32;34034;-89
2023/01/24 12:39:00;;;;;;;;;;;;;;;14.73;41.17;100508.78;4484191;32;33817;-88
2023/01/24 12:41:35;;;;;;;;;;;;;;;14.50;41.88;100507.50;4482816;32;33803;-89
2023/01/24 12:44:08;;;;;;;;;;;;;;;15.32;40.01;100508.00;4482365;32;34792;-89
2023/01/24 12:46:41;;;;;;;;;;;;;;;15.35;39.92;100505.44;4484099;32;33459;-87
2023/01/24 12:49:14;;;;;;;;;;;;;;;14.02;43.36;100490.94;4483849;32;34260;-88
2023/01/24 12:51:44;;;;;;;;;;;;;;;14.50;42.46;100500.56;4483902;32;34778;-89
2023/01/24 12:54:16;;;;;;;;;;;;;;;13.71;44.39;100506.78;4482183;32;33775;-89
2023/01/24 12:56:50;;;;;;;;;;;;;;;14.31;43.14;100507.13;4482091;32;33096;-88
2023/01/24 12:59:19;;;;;;;;;;;;;;;14.48;42.70;100512.69;4483845;32;35014;-88
2023/01/24 13:01:54;;;;;;;;;;;;;;;15.03;41.45;100510.16;4482366;32;34489;-88
2023/01/24 13:04:40;;;;;;;;;;;;;;;15.19;41.12;100509.56;4482340;32;33818;-87
2023/01/24 13:07:07;;;;;;;;;;;;;;;15.07;41.41;100518.06;4483526;32;33124;-88
2023/01/24 13:09:53;;;;;;;;;;;;;;;15.09;41.26;100513.75;4483750;32;34750;-89
2023/01/24 13:12:24;;;;;;;;;;;;;;;14.56;42.68;100510.25;4483566;32;35021;-87
2023/01/24 13:14:55;;;;;;;;;;;;;;;15.05;41.75;100506.72;4483781;32;34144;-89
2023/01/24 13:17:41;;;;;;;;;;;;;;;15.08;41.62;100514.63;4482191;32;33126;-88
2023/01/24 13:20:11;;;;;;;;;;;;;;;14.73;42.17;100502.69;4483573;32;34491;-88
2023/01/24 13:22:38;;;;;;;;;;;;;;;14.98;41.24;100510.09;4483854;32;35222;-89
2023/01/24 13:25:29;;;;;;;;;;;;;;;14.59;41.85;100507.69;4483683;32;34154;-88
2023/01/24 13:28:19;;;;;;;;;;;;;;;14.65;41.77;100507.78;4454272;31;33415;-88